»·PEaware :: N427LJ KSNA-KAVX

N427LJ :: KSNA-KAVX

FLIGHT INFORMATION

Flight Status: Arrived
Operator: Privately registered:
United States
More flights under this callsign
Pilot: Anonymous 27948 (27948)
Aircraft: CESSNA 172 SKYHAWK
(C172)
More flights by this aircraft type
Origin: KSNA John Wayne-Orange Co
United States
Destination: KAVX Catalina
United States
More flights between these airports :: More routes between these airports
Route: SLI V21 SXC
File this flight plan on PilotEdge
Remarks: I-7 RATING
Altitude:
(Current/Filed)
4,000ft
Speed:
(Current/Filed)
120kts
Departed: 12-Sep-20 01:42 PM
Arrived: 12-Sep-20 02:14 PM
Distance/Time
Traveled:
32nm/0:32
Distance/Time
To Go:
Arrived

Flight Plot

Page will automatically refresh every two minutes.


Map Options




Map Legend


Flown Route
Filed Route
Departure Airport
Arrival Airport
Navaid (VOR, NDB)
Fix

Horizontal Profiles

Position Reports

Time Latitude Longitude Heading Altitude Ground
Speed
12-Sep-20 13:24 33.671605 -117.867758 207 60ft 0kts
12-Sep-20 13:25 33.671605 -117.867758 207 60ft 0kts
12-Sep-20 13:27 33.671605 -117.867758 207 60ft 0kts
12-Sep-20 13:27 33.671605 -117.867758 207 60ft 0kts
12-Sep-20 13:28 33.671605 -117.867758 207 60ft 0kts
12-Sep-20 13:29 33.671605 -117.867758 207 60ft 0kts
12-Sep-20 13:31 33.671605 -117.867758 207 60ft 0kts
12-Sep-20 13:31 33.671605 -117.867758 207 60ft 0kts
12-Sep-20 13:32 33.671605 -117.867758 207 60ft 0kts
12-Sep-20 13:33 33.671605 -117.867758 207 60ft 0kts
12-Sep-20 13:34 33.671605 -117.867758 207 60ft 0kts
12-Sep-20 13:35 33.671711 -117.868121 317 60ft 6kts
12-Sep-20 13:36 33.673194 -117.867139 37 60ft 7kts
12-Sep-20 13:37 33.676198 -117.865758 29 60ft 15kts
12-Sep-20 13:38 33.679477 -117.863682 30 60ft 9kts
12-Sep-20 13:39 33.679927 -117.863563 305 60ft 0kts
12-Sep-20 13:40 33.679927 -117.863563 305 60ft 0kts
12-Sep-20 13:41 33.676893 -117.866192 207 64ft 76kts
12-Sep-20 13:42 33.660517 -117.882539 230 1130ft 80kts
12-Sep-20 13:43 33.646193 -117.903782 230 2041ft 90kts
12-Sep-20 13:44 33.627335 -117.931950 231 2056ft 116kts
12-Sep-20 13:45 33.606967 -117.962412 231 2164ft 108kts
12-Sep-20 13:46 33.589964 -117.987777 230 2805ft 91kts
12-Sep-20 13:47 33.574441 -118.010860 230 3719ft 89kts
12-Sep-20 13:48 33.557021 -118.036815 231 4057ft 114kts
12-Sep-20 13:49 33.536478 -118.067511 231 4055ft 120kts
12-Sep-20 13:50 33.515879 -118.098297 231 4052ft 112kts
12-Sep-20 13:51 33.496231 -118.127645 231 4054ft 113kts
12-Sep-20 13:52 33.479480 -118.159244 245 4054ft 113kts
12-Sep-20 13:53 33.466042 -118.193356 244 3996ft 118kts
12-Sep-20 13:54 33.451927 -118.228631 244 3935ft 114kts
12-Sep-20 13:55 33.438280 -118.262663 244 3935ft 113kts
12-Sep-20 13:56 33.424619 -118.296698 244 3935ft 113kts
12-Sep-20 13:57 33.410953 -118.330714 244 3935ft 113kts
12-Sep-20 13:58 33.397290 -118.364690 244 3935ft 113kts
12-Sep-20 13:59 33.383628 -118.398628 244 3935ft 113kts
12-Sep-20 14:00 33.396302 -118.420168 17 3673ft 115kts
12-Sep-20 14:01 33.427691 -118.412364 8 3334ft 108kts
12-Sep-20 14:02 33.456970 -118.407992 6 3335ft 105kts
12-Sep-20 14:03 33.486065 -118.403043 8 3335ft 105kts
12-Sep-20 14:04 33.510714 -118.417752 318 3281ft 103kts
12-Sep-20 14:05 33.532565 -118.420420 73 2763ft 98kts
12-Sep-20 14:06 33.516254 -118.400006 182 2476ft 97kts
12-Sep-20 14:07 33.489902 -118.403107 186 2388ft 94kts
12-Sep-20 14:08 33.466914 -118.406428 186 2336ft 80kts
12-Sep-20 14:09 33.444469 -118.409651 186 2252ft 79kts
12-Sep-20 14:10 33.423476 -118.417030 212 2124ft 79kts
12-Sep-20 14:11 33.408210 -118.436234 228 2005ft 79kts
12-Sep-20 14:12 33.404093 -118.432696 102 1776ft 68kts
12-Sep-20 14:13 33.404631 -118.416427 53 1552ft 6kts
12-Sep-20 14:14 33.404056 -118.414968 174 1544ft 0kts
12-Sep-20 14:18 33.407246 -118.411998 234 1504ft 0kts
12-Sep-20 14:19 33.407246 -118.411998 234 1504ft 0kts

Navigation Log

Ident Type
Flight plan parsing failed, navigation log unavailable